Etusivu
METAR-TAF:

METAR-TAF

Lentoasemat :

Khartum, Sudan

Leveyspiiri: 15-36N, Pituuspiiri: 032-33E, korkeus merenpinnasta: 382 m

Tämänhetkinen sää

Tämä raportti tehtiin 19 minuuttia sitten, kello 04.00 UTC
Tuuli 8 kn pohjoisesta
Lämpötila 16°C
Kosteus 36%
Ilmanpaine 1018 hPa
Näkyvyys 10 km tai enemmän
ei pilviä alle 1500 m:ssä eikä cumulonimbus-pilviä

METAR: HSSS 130400Z 36008KT CAVOK 16/01 Q1018 NOSIG

Aika: 07:19 (04:19 UTC)

Sääennuste

Tämä raportti tehtiin 5 tuntia ja 19 minuuttia sitten, kello 23.00 UTC
Ennuste voimassa 13. päivästä klo 00 UTC - 14. päivään klo 06 UTC
Tuuli 10 kn pohjoisen/luoteesta puuskistuen 20 kn:hen
Näkyvyys 10 km tai enemmän
ei pilviä alle 1500 m:ssä eikä cumulonimbus-pilviä
Ajoittain
13. päivästä klo 03 UTC - 13. päivään klo 09 UTC
Näkyvyys: 6000 m

TAF: HSSS 122300Z 1300/1406 34010G20KT CAVOK TEMPO 1303/1309 6000

Säähavainnot ja -ennusteet yli 4000 lentoasemalta (METAR- ja TAF-raportit).

Käytössä olevat sääasemat on merkitty karttaan keltaisilla ja punaisilla pisteillä.

Aseta hiiri pisteen päälle nähdäksesi sääaseman nimen.

Klikkaa sitten nähdäksesi säähavainnot ja -ennusteet.

Kartan vaihtaminen: klikkaa mustalla rastilla varustettuja vihreitä pisteitä, niin voit zoomata sisään; viivalla varustettua vihreää pistettä, niin voit zoomata ulos tai vihreitä nuolia, niin pääset viereisille kartoille.


METAR-TAF: